createdAt,value
2018-06-21T00:01:36.363Z,97059.41
2018-06-21T00:04:05.586Z,97058.05
2018-06-21T00:06:35.868Z,97055.89
2018-06-21T00:09:07.579Z,97058.72
2018-06-21T00:11:36.771Z,97059.17
2018-06-21T00:14:05.982Z,97051.87
2018-06-21T00:16:35.191Z,97051.87
2018-06-21T00:19:04.954Z,97047.95
2018-06-21T00:21:34.611Z,97043.14
2018-06-21T00:24:04.280Z,97044.27
2018-06-21T00:26:33.887Z,97042.91
2018-06-21T00:29:03.073Z,97041.92
2018-06-21T00:31:32.534Z,97039.17
2018-06-21T00:34:01.736Z,97039.50
2018-06-21T00:39:01.123Z,97046.30
2018-06-21T00:41:31.266Z,97044.19
2018-06-21T00:44:00.707Z,97045.03
2018-06-21T00:46:30.399Z,97043.69
2018-06-21T00:48:59.610Z,97037.96
2018-06-21T00:51:29.110Z,97027.50
2018-06-21T00:53:58.383Z,97035.62
2018-06-21T00:56:27.566Z,97038.31
2018-06-21T00:58:56.794Z,97043.19
2018-06-21T01:01:25.967Z,97040.98
2018-06-21T01:03:55.542Z,97041.56
2018-06-21T01:06:25.347Z,97039.13
2018-06-21T01:08:54.826Z,97041.06
2018-06-21T01:11:24.234Z,97036.47
2018-06-21T01:13:53.439Z,97029.45
2018-06-21T01:16:22.825Z,97040.48
2018-06-21T01:18:53.096Z,97031.25
2018-06-21T01:21:22.767Z,97033.72
2018-06-21T01:23:52.846Z,97034.30
2018-06-21T01:26:22.264Z,97035.08
2018-06-21T01:28:52.091Z,97031.69
2018-06-21T01:31:22.411Z,97036.28
2018-06-21T01:33:54.424Z,97032.50
2018-06-21T01:36:23.575Z,97038.21
2018-06-21T01:38:52.782Z,97035.78
2018-06-21T01:41:21.978Z,97034.50
2018-06-21T01:43:51.873Z,97028.02
2018-06-21T01:46:21.650Z,97025.59
2018-06-21T01:48:51.955Z,97030.22
2018-06-21T01:51:21.135Z,97028.09
2018-06-21T01:53:51.800Z,97017.80
2018-06-21T01:56:21.540Z,97014.08
2018-06-21T01:58:50.710Z,97022.69
2018-06-21T02:01:20.726Z,97023.23
2018-06-21T02:03:51.268Z,97020.49
2018-06-21T02:06:20.487Z,97015.63
2018-06-21T02:08:49.959Z,97019.18
2018-06-21T02:11:19.479Z,97019.21
2018-06-21T02:13:48.743Z,97006.25
2018-06-21T02:16:18.475Z,97013.55
2018-06-21T02:18:47.674Z,97011.62
2018-06-21T02:21:16.910Z,97006.17
2018-06-21T02:23:46.443Z,97001.89
2018-06-21T02:26:17.190Z,97006.72
2018-06-21T02:28:46.987Z,97002.43
2018-06-21T02:31:16.183Z,96997.77
2018-06-21T02:33:46.047Z,96994.56
2018-06-21T02:36:15.167Z,96993.78
2018-06-21T02:38:44.891Z,96981.91
2018-06-21T02:41:14.455Z,96977.92
2018-06-21T02:43:44.054Z,96973.10
2018-06-21T02:46:14.444Z,96966.92
2018-06-21T02:48:43.992Z,96959.83
2018-06-21T02:51:13.651Z,96960.68
2018-06-21T02:53:43.088Z,96958.25
2018-06-21T02:56:16.096Z,96959.06
2018-06-21T02:58:45.686Z,96953.16
2018-06-21T03:01:15.943Z,96943.48
2018-06-21T03:03:45.412Z,96937.34
2018-06-21T03:06:14.606Z,96933.83
2018-06-21T03:08:44.424Z,96927.66
2018-06-21T03:11:13.949Z,96927.17
2018-06-21T03:13:43.122Z,96922.32
2018-06-21T03:16:12.756Z,96921.78
2018-06-21T03:18:42.533Z,96929.61
2018-06-21T03:21:12.317Z,96917.43
2018-06-21T03:23:41.455Z,96916.62
2018-06-21T03:26:11.008Z,96926.84
2018-06-21T03:28:41.719Z,96926.88
2018-06-21T03:31:10.907Z,96930.17
2018-06-21T03:33:40.125Z,96931.80
2018-06-21T03:36:09.599Z,96927.69
2018-06-21T03:38:39.135Z,96928.26
2018-06-21T03:41:08.479Z,96933.66
2018-06-21T03:43:38.231Z,96937.94
2018-06-21T03:46:07.419Z,96937.03
2018-06-21T03:48:37.073Z,96928.77
2018-06-21T03:51:06.306Z,96931.30
2018-06-21T03:53:35.852Z,96936.20
2018-06-21T03:56:05.701Z,96929.98
2018-06-21T03:58:34.900Z,96924.67
2018-06-21T04:01:04.090Z,96926.67
2018-06-21T04:03:33.266Z,96923.73
2018-06-21T04:06:03.187Z,96912.39
2018-06-21T04:08:32.376Z,96914.91
2018-06-21T04:11:02.379Z,96917.52
2018-06-21T04:13:32.028Z,96909.69
2018-06-21T04:16:01.199Z,96908.82
2018-06-21T04:18:35.999Z,96907.38
2018-06-21T04:21:06.330Z,96911.93
2018-06-21T04:23:35.514Z,96910.52
2018-06-21T04:26:05.132Z,96909.38
2018-06-21T04:28:34.327Z,96914.74
2018-06-21T04:31:03.537Z,96915.93
2018-06-21T04:33:33.776Z,96918.83
2018-06-21T04:36:03.219Z,96913.79
2018-06-21T04:38:32.445Z,96909.39
2018-06-21T04:41:01.630Z,96920.66
2018-06-21T04:43:31.268Z,96916.67
2018-06-21T04:46:00.500Z,96913.23
2018-06-21T04:48:29.738Z,96921.92
2018-06-21T04:50:59.287Z,96914.85
2018-06-21T04:53:28.574Z,96913.00
2018-06-21T04:55:57.755Z,96913.02
2018-06-21T04:58:27.167Z,96912.50
2018-06-21T05:00:56.346Z,96916.27
2018-06-21T05:03:25.847Z,96920.06
2018-06-21T05:05:55.711Z,96922.59
2018-06-21T05:08:24.870Z,96918.33
2018-06-21T05:10:54.063Z,96924.33
2018-06-21T05:13:23.247Z,96927.23
2018-06-21T05:15:52.440Z,96936.23
2018-06-21T05:18:21.663Z,96920.18
2018-06-21T05:20:50.843Z,96920.88
2018-06-21T05:23:20.206Z,96931.33
2018-06-21T05:25:49.415Z,96938.38
2018-06-21T05:28:18.598Z,96921.95
2018-06-21T05:30:47.799Z,96927.05
2018-06-21T05:33:16.970Z,96921.40
2018-06-21T05:35:46.167Z,96921.36
2018-06-21T05:38:15.507Z,96920.52
2018-06-21T05:40:44.727Z,96910.55
2018-06-21T05:43:14.218Z,96917.19
2018-06-21T05:45:43.405Z,96910.61
2018-06-21T05:48:12.591Z,96911.55
2018-06-21T05:50:41.815Z,96904.61
2018-06-21T05:53:11.246Z,96912.50
2018-06-21T05:55:40.420Z,96906.73
2018-06-21T05:58:10.350Z,96897.86
2018-06-21T06:00:39.531Z,96899.33
2018-06-21T06:03:08.746Z,96899.86
2018-06-21T06:05:37.920Z,96898.05
2018-06-21T06:08:07.239Z,96897.87
2018-06-21T06:10:36.824Z,96893.30
2018-06-21T06:13:06.544Z,96901.52
2018-06-21T06:15:35.732Z,96901.27
2018-06-21T06:18:04.922Z,96901.37
2018-06-21T06:20:34.092Z,96891.97
2018-06-21T06:23:03.279Z,96903.53
2018-06-21T06:25:32.451Z,96898.92
2018-06-21T06:28:01.653Z,96890.13
2018-06-21T06:30:30.823Z,96893.14
2018-06-21T06:33:00.030Z,96881.67
2018-06-21T06:35:30.626Z,96879.44
2018-06-21T06:38:01.006Z,96882.72
2018-06-21T06:40:30.232Z,96883.04
2018-06-21T06:42:59.410Z,96888.05
2018-06-21T06:45:28.715Z,96887.89
2018-06-21T06:47:57.919Z,96882.39
2018-06-21T06:50:27.303Z,96880.09
2018-06-21T06:52:56.514Z,96882.25
2018-06-21T06:55:25.785Z,96880.88
2018-06-21T06:57:54.996Z,96881.44
2018-06-21T07:00:24.188Z,96881.33
2018-06-21T07:02:53.381Z,96879.06
2018-06-21T07:05:22.639Z,96876.47
2018-06-21T07:07:52.463Z,96879.45
2018-06-21T07:10:21.664Z,96875.99
2018-06-21T07:12:50.847Z,96877.52
2018-06-21T07:15:20.958Z,96881.54
2018-06-21T07:17:50.297Z,96872.11
2018-06-21T07:20:19.810Z,96870.91
2018-06-21T07:22:48.962Z,96872.31
2018-06-21T07:25:18.283Z,96878.09
2018-06-21T07:27:47.454Z,96874.44
2018-06-21T07:30:16.791Z,96874.92
2018-06-21T07:32:46.003Z,96881.91
2018-06-21T07:35:15.364Z,96873.00
2018-06-21T07:37:44.895Z,96878.36
2018-06-21T07:40:14.101Z,96871.17
2018-06-21T07:42:43.883Z,96879.15
2018-06-21T07:45:13.458Z,96879.78
2018-06-21T07:47:42.919Z,96874.38
2018-06-21T07:50:12.135Z,96877.08
2018-06-21T07:52:41.359Z,96885.76
2018-06-21T07:55:10.539Z,96892.22
2018-06-21T07:57:39.734Z,96885.58
2018-06-21T08:00:08.936Z,96877.35
2018-06-21T08:02:38.402Z,96897.98
2018-06-21T08:05:07.615Z,96893.66
2018-06-21T08:07:36.770Z,96894.11
2018-06-21T08:10:06.187Z,96894.52
2018-06-21T08:12:35.403Z,96902.77
2018-06-21T08:15:04.598Z,96905.73
2018-06-21T08:17:33.814Z,96900.03
2018-06-21T08:20:03.216Z,96909.33
2018-06-21T08:22:32.419Z,96914.69
2018-06-21T08:25:01.619Z,96921.48
2018-06-21T08:27:30.931Z,96918.92
2018-06-21T08:30:00.163Z,96918.04
2018-06-21T08:32:29.327Z,96920.44
2018-06-21T08:34:58.494Z,96924.41
2018-06-21T08:37:27.688Z,96927.75
2018-06-21T08:39:56.867Z,96930.78
2018-06-21T08:42:26.070Z,96930.34
2018-06-21T08:44:55.862Z,96932.83
2018-06-21T08:47:25.092Z,96939.72
2018-06-21T08:49:54.374Z,96958.41
2018-06-21T08:52:23.578Z,96968.32
2018-06-21T08:54:52.872Z,96976.10
2018-06-21T08:57:22.051Z,96974.50
2018-06-21T08:59:51.378Z,96987.80
2018-06-21T09:02:21.346Z,96986.17
2018-06-21T09:04:50.548Z,96989.15
2018-06-21T09:07:19.872Z,97001.16
2018-06-21T09:09:49.082Z,96993.92
2018-06-21T09:12:18.644Z,97008.69
2018-06-21T09:14:49.076Z,97011.20
2018-06-21T09:17:18.559Z,97012.36
2018-06-21T09:19:47.770Z,97015.73
2018-06-21T09:22:16.931Z,97022.27
2018-06-21T09:24:46.435Z,97024.84
2018-06-21T09:27:15.612Z,97025.84
2018-06-21T09:29:44.934Z,97033.70
2018-06-21T09:32:14.118Z,97038.66
2018-06-21T09:34:43.310Z,97028.80
2018-06-21T09:37:12.463Z,97038.36
2018-06-21T09:39:46.895Z,97034.09
2018-06-21T09:42:21.267Z,97043.55
2018-06-21T09:44:55.747Z,97047.78
2018-06-21T09:47:30.217Z,97049.20
2018-06-21T09:49:59.793Z,97043.86
2018-06-21T09:52:28.971Z,97051.05
2018-06-21T09:54:58.447Z,97049.49
2018-06-21T09:57:27.622Z,97046.66
2018-06-21T09:59:56.832Z,97043.20
2018-06-21T10:02:26.002Z,97041.45
2018-06-21T10:04:55.434Z,97048.05
2018-06-21T10:07:24.607Z,97043.41
2018-06-21T10:09:53.807Z,97046.61
2018-06-21T10:12:22.978Z,97045.14
2018-06-21T10:14:52.179Z,97036.36
2018-06-21T10:17:21.342Z,97045.69
2018-06-21T10:19:51.203Z,97050.70
2018-06-21T10:22:20.299Z,97048.83
2018-06-21T10:24:50.135Z,97052.70
2018-06-21T10:27:19.399Z,97049.59
2018-06-21T10:29:48.742Z,97049.59
2018-06-21T10:32:17.911Z,97051.45
2018-06-21T10:34:47.808Z,97051.78
2018-06-21T10:37:17.010Z,97054.29
2018-06-21T10:39:46.428Z,97046.75
2018-06-21T10:42:15.622Z,97049.13
2018-06-21T10:44:45.407Z,97062.55
2018-06-21T10:47:14.584Z,97062.58
2018-06-21T10:49:43.746Z,97063.38
2018-06-21T10:52:12.963Z,97057.95
2018-06-21T10:54:42.219Z,97063.92
2018-06-21T10:57:11.596Z,97061.64
2018-06-21T10:59:40.674Z,97070.26
2018-06-21T11:02:09.856Z,97067.77
2018-06-21T11:04:39.019Z,97055.02
2018-06-21T11:07:08.452Z,97064.52
2018-06-21T11:09:37.623Z,97064.05
2018-06-21T11:12:06.835Z,97068.23
2018-06-21T11:14:36.027Z,97069.31
2018-06-21T11:17:05.239Z,97080.63
2018-06-21T11:19:34.426Z,97091.73
2018-06-21T11:22:04.047Z,97094.09
2018-06-21T11:24:33.435Z,97101.10
2018-06-21T11:27:02.631Z,97094.67
2018-06-21T11:29:31.947Z,97079.44
2018-06-21T11:32:01.587Z,97073.46
2018-06-21T11:34:30.911Z,97077.61
2018-06-21T11:37:00.074Z,97089.11
2018-06-21T11:39:29.281Z,97087.06
2018-06-21T11:41:58.446Z,97084.95
2018-06-21T11:44:27.658Z,97080.30
2018-06-21T11:46:56.851Z,97077.95
2018-06-21T11:49:26.043Z,97076.52
2018-06-21T11:51:55.215Z,97091.55
2018-06-21T11:54:25.134Z,97089.20
2018-06-21T11:56:54.299Z,97095.14
2018-06-21T11:59:23.500Z,97091.51
2018-06-21T12:01:52.980Z,97096.70
2018-06-21T12:04:22.503Z,97090.53
2018-06-21T12:06:51.727Z,97099.45
2018-06-21T12:09:20.906Z,97105.17
2018-06-21T12:11:50.066Z,97104.86
2018-06-21T12:14:19.276Z,97109.34
2018-06-21T12:16:48.451Z,97114.26
2018-06-21T12:19:17.983Z,97114.07
2018-06-21T12:21:47.183Z,97110.88
2018-06-21T12:24:16.487Z,97121.39
2018-06-21T12:26:45.700Z,97115.98
2018-06-21T12:29:14.903Z,97118.33
2018-06-21T12:31:44.067Z,97112.92
2018-06-21T12:34:13.506Z,97115.64
2018-06-21T12:36:43.024Z,97119.89
2018-06-21T12:39:12.211Z,97131.98
2018-06-21T12:41:42.049Z,97127.97
2018-06-21T12:44:11.775Z,97131.45
2018-06-21T12:46:40.967Z,97129.72
2018-06-21T12:49:10.680Z,97130.80
2018-06-21T12:51:39.864Z,97129.11
2018-06-21T12:54:09.022Z,97137.77
2018-06-21T12:56:38.219Z,97133.03
2018-06-21T12:59:07.515Z,97148.22
2018-06-21T13:01:36.709Z,97149.08
2018-06-21T13:04:05.895Z,97143.72
2018-06-21T13:06:35.095Z,97149.05
2018-06-21T13:09:15.635Z,97150.81
2018-06-21T13:12:54.335Z,97158.45
2018-06-21T13:15:23.596Z,97161.47
2018-06-21T13:17:52.911Z,97159.11
2018-06-21T13:20:22.112Z,97149.00
2018-06-21T13:22:52.757Z,97154.00
2018-06-21T13:25:21.971Z,97153.93
2018-06-21T13:27:51.469Z,97162.78
2018-06-21T13:30:21.383Z,97166.31
2018-06-21T13:32:50.559Z,97173.06
2018-06-21T13:35:19.732Z,97164.43
2018-06-21T13:37:48.975Z,97168.30
2018-06-21T13:40:18.183Z,97168.23
2018-06-21T13:42:47.387Z,97189.27
2018-06-21T13:45:16.954Z,97192.62
2018-06-21T13:47:46.525Z,97182.52
2018-06-21T13:50:15.927Z,97183.44
2018-06-21T13:52:45.143Z,97205.70
2018-06-21T13:55:14.318Z,97193.64
2018-06-21T13:57:43.551Z,97202.53
2018-06-21T14:00:13.021Z,97198.06
2018-06-21T14:02:42.363Z,97194.17
2018-06-21T14:05:11.719Z,97190.30
2018-06-21T14:07:41.086Z,97202.80
2018-06-21T14:10:10.379Z,97207.09
2018-06-21T14:12:39.560Z,97191.31
2018-06-21T14:15:08.992Z,97212.28
2018-06-21T14:17:38.202Z,97196.66
2018-06-21T14:20:07.498Z,97223.19
2018-06-21T14:22:36.707Z,97218.19
2018-06-21T14:25:06.037Z,97233.48
2018-06-21T14:27:35.230Z,97217.00
2018-06-21T14:30:04.629Z,97230.48
2018-06-21T14:32:33.864Z,97229.80
2018-06-21T14:35:03.046Z,97238.54
2018-06-21T14:37:32.246Z,97240.09
2018-06-21T14:40:01.451Z,97238.30
2018-06-21T14:42:30.680Z,97233.97
2018-06-21T14:44:59.963Z,97241.25
2018-06-21T14:47:29.307Z,97240.53
2018-06-21T14:49:58.470Z,97239.47
2018-06-21T14:52:28.010Z,97248.45
2018-06-21T14:54:57.175Z,97249.47
2018-06-21T14:57:26.363Z,97249.09
2018-06-21T14:59:55.747Z,97265.54
2018-06-21T15:02:25.031Z,97261.39
2018-06-21T15:04:54.316Z,97273.36
2018-06-21T15:07:23.510Z,97265.94
2018-06-21T15:09:53.295Z,97254.59
2018-06-21T15:12:22.467Z,97264.42
2018-06-21T15:14:52.015Z,97268.20
2018-06-21T15:17:21.196Z,97272.78
2018-06-21T15:19:50.372Z,97261.35
2018-06-21T15:22:19.564Z,97267.36
2018-06-21T15:24:49.006Z,97275.62
2018-06-21T15:27:18.909Z,97274.25
2018-06-21T15:29:48.100Z,97269.45
2018-06-21T15:32:17.373Z,97283.90
2018-06-21T15:34:46.563Z,97266.63
2018-06-21T15:37:15.710Z,97278.91
2018-06-21T15:39:44.915Z,97282.97
2018-06-21T15:42:14.086Z,97280.44
2018-06-21T15:44:43.288Z,97287.31
2018-06-21T15:47:12.478Z,97297.77
2018-06-21T15:49:42.101Z,97295.53
2018-06-21T15:52:11.874Z,97307.06
2018-06-21T15:54:41.316Z,97307.95
2018-06-21T15:57:10.493Z,97297.29
2018-06-21T15:59:39.693Z,97307.42
2018-06-21T16:02:09.022Z,97304.98
2018-06-21T16:04:39.955Z,97311.07
2018-06-21T16:07:09.103Z,97319.48
2018-06-21T16:09:38.298Z,97329.17
2018-06-21T16:12:07.550Z,97324.96
2018-06-21T16:14:36.713Z,97315.12
2018-06-21T16:17:05.879Z,97339.63
2018-06-21T16:19:35.383Z,97339.36
2018-06-21T16:22:04.975Z,97334.51
2018-06-21T16:24:34.159Z,97333.89
2018-06-21T16:27:03.357Z,97328.01
2018-06-21T16:29:32.538Z,97341.06
2018-06-21T16:32:01.775Z,97365.04
2018-06-21T16:34:30.942Z,97347.41
2018-06-21T16:37:00.135Z,97352.53
2018-06-21T16:39:29.527Z,97357.32
2018-06-21T16:41:59.995Z,97347.59
2018-06-21T16:44:29.423Z,97348.59
2018-06-21T16:46:58.616Z,97352.16
2018-06-21T16:49:27.910Z,97363.14
2018-06-21T16:51:57.103Z,97362.91
2018-06-21T16:54:26.350Z,97371.66
2018-06-21T16:56:55.683Z,97376.05
2018-06-21T16:59:25.565Z,97370.30
2018-06-21T17:01:55.179Z,97376.05
2018-06-21T17:04:24.360Z,97375.08
2018-06-21T17:06:53.667Z,97377.88
2018-06-21T17:09:23.171Z,97374.05
2018-06-21T17:11:52.597Z,97387.66
2018-06-21T17:14:21.787Z,97386.13
2018-06-21T17:16:51.407Z,97386.21
2018-06-21T17:19:21.059Z,97394.32
2018-06-21T17:21:50.331Z,97396.23
2018-06-21T17:24:19.671Z,97403.95
2018-06-21T17:26:48.855Z,97413.07
2018-06-21T17:29:18.339Z,97404.45
2018-06-21T17:31:47.659Z,97399.73
2018-06-21T17:34:17.151Z,97395.05
2018-06-21T17:36:46.830Z,97397.61
2018-06-21T17:39:15.963Z,97408.14
2018-06-21T17:41:45.168Z,97412.58
2018-06-21T17:44:14.477Z,97410.97
2018-06-21T17:46:43.655Z,97411.51
2018-06-21T17:49:12.865Z,97416.53
2018-06-21T17:51:42.768Z,97412.31
2018-06-21T17:54:12.255Z,97432.41
2018-06-21T17:56:42.751Z,97436.55
2018-06-21T17:59:11.951Z,97422.26
2018-06-21T18:01:41.205Z,97432.17
2018-06-21T18:04:11.117Z,97434.00
2018-06-21T18:06:40.583Z,97444.08
2018-06-21T18:09:10.323Z,97444.16
2018-06-21T18:11:39.643Z,97444.95
2018-06-21T18:14:08.819Z,97449.86
2018-06-21T18:16:38.504Z,97445.30
2018-06-21T18:19:07.743Z,97454.50
2018-06-21T18:21:37.271Z,97456.18
2018-06-21T18:24:07.980Z,97456.19
2018-06-21T18:26:37.204Z,97457.57
2018-06-21T18:29:07.004Z,97460.80
2018-06-21T18:31:36.816Z,97467.05
2018-06-21T18:34:06.167Z,97466.81
2018-06-21T18:36:35.415Z,97473.02
2018-06-21T18:39:06.106Z,97476.52
2018-06-21T18:41:35.671Z,97480.29
2018-06-21T18:44:05.203Z,97482.12
2018-06-21T18:46:34.424Z,97483.75
2018-06-21T18:49:03.627Z,97484.56
2018-06-21T18:51:32.831Z,97486.95
2018-06-21T18:54:02.771Z,97493.42
2018-06-21T18:56:31.964Z,97492.08
2018-06-21T18:59:01.384Z,97488.54
2018-06-21T19:01:31.427Z,97495.58
2018-06-21T19:04:00.957Z,97495.25
2018-06-21T19:06:36.328Z,97491.43
2018-06-21T19:09:12.991Z,97499.98
2018-06-21T19:11:48.028Z,97497.59
2018-06-21T19:14:17.256Z,97506.52
2018-06-21T19:16:47.407Z,97503.47
2018-06-21T19:19:16.921Z,97498.33
2018-06-21T19:21:47.262Z,97498.78
2018-06-21T19:24:16.434Z,97504.09
2018-06-21T19:26:45.942Z,97501.17
2018-06-21T19:29:15.524Z,97512.70
2018-06-21T19:31:44.710Z,97511.30
2018-06-21T19:34:13.991Z,97516.83
2018-06-21T19:36:43.173Z,97519.81
2018-06-21T19:39:12.926Z,97521.85
2018-06-21T19:41:42.120Z,97528.34
2018-06-21T19:44:11.732Z,97528.22
2018-06-21T19:46:40.931Z,97526.84
2018-06-21T19:49:10.754Z,97528.95
2018-06-21T19:51:40.330Z,97537.77
2018-06-21T19:54:09.556Z,97533.48
2018-06-21T19:56:39.978Z,97543.48
2018-06-21T19:59:09.172Z,97540.98
2018-06-21T20:01:38.351Z,97549.50
2018-06-21T20:04:07.574Z,97559.73
2018-06-21T20:06:37.470Z,97560.98
2018-06-21T20:09:09.030Z,97565.17
2018-06-21T20:11:38.692Z,97571.98
2018-06-21T20:14:08.565Z,97566.65
2018-06-21T20:16:37.860Z,97571.17
2018-06-21T20:19:09.874Z,97570.48
2018-06-21T20:21:40.227Z,97572.87
2018-06-21T20:24:10.135Z,97575.70
2018-06-21T20:26:39.394Z,97579.73
2018-06-21T20:29:13.705Z,97581.88
2018-06-21T20:31:44.543Z,97593.34
2018-06-21T20:34:14.743Z,97591.81
2018-06-21T20:36:43.939Z,97596.31
2018-06-21T20:39:13.592Z,97598.59
2018-06-21T20:41:43.283Z,97600.13
2018-06-21T20:44:12.746Z,97590.53
2018-06-21T20:46:41.878Z,97600.92
2018-06-21T20:49:11.108Z,97599.29
2018-06-21T20:51:40.315Z,97602.00
2018-06-21T20:54:09.487Z,97610.55
2018-06-21T20:56:38.711Z,97605.58
2018-06-21T20:59:07.870Z,97605.28
2018-06-21T21:01:37.199Z,97607.35
2018-06-21T21:04:07.111Z,97608.50
2018-06-21T21:06:36.723Z,97606.27
2018-06-21T21:09:07.833Z,97607.83
2018-06-21T21:11:37.015Z,97613.05
2018-06-21T21:14:06.464Z,97620.28
2018-06-21T21:16:35.705Z,97621.69
2018-06-21T21:19:05.319Z,97616.02
2018-06-21T21:21:34.768Z,97621.00
2018-06-21T21:24:04.163Z,97614.25
2018-06-21T21:26:33.367Z,97624.39
2018-06-21T21:29:02.767Z,97623.85
2018-06-21T21:31:31.971Z,97625.00
2018-06-21T21:34:01.167Z,97625.73
2018-06-21T21:36:30.703Z,97625.23
2018-06-21T21:39:00.259Z,97628.81
2018-06-21T21:41:30.080Z,97627.81
2018-06-21T21:43:59.479Z,97627.59
2018-06-21T21:46:28.658Z,97631.57
2018-06-21T21:48:57.918Z,97632.54
2018-06-21T21:51:27.118Z,97635.20
2018-06-21T21:53:56.664Z,97634.89
2018-06-21T21:56:26.428Z,97635.50
2018-06-21T21:58:56.327Z,97633.02
2018-06-21T22:01:25.820Z,97631.07
2018-06-21T22:03:56.116Z,97633.02
2018-06-21T22:06:25.905Z,97642.89
2018-06-21T22:08:55.050Z,97636.29
2018-06-21T22:11:24.531Z,97637.66
2018-06-21T22:13:58.919Z,97640.41
2018-06-21T22:16:28.144Z,97638.25
2018-06-21T22:18:57.325Z,97641.57
2018-06-21T22:21:26.953Z,97637.63
2018-06-21T22:23:56.854Z,97639.94
2018-06-21T22:26:26.599Z,97636.67
2018-06-21T22:28:56.011Z,97637.06
2018-06-21T22:31:25.227Z,97640.59
2018-06-21T22:33:54.734Z,97640.93
2018-06-21T22:36:24.311Z,97647.58
2018-06-21T22:38:53.722Z,97638.97
2018-06-21T22:41:23.311Z,97642.98
2018-06-21T22:43:52.511Z,97652.97
2018-06-21T22:46:21.696Z,97650.95
2018-06-21T22:48:50.908Z,97651.34
2018-06-21T22:51:20.238Z,97652.18
2018-06-21T22:53:49.841Z,97651.38
2018-06-21T22:56:19.020Z,97652.39
2018-06-21T22:58:48.550Z,97648.56
2018-06-21T23:01:17.736Z,97648.09
2018-06-21T23:03:47.268Z,97654.00
2018-06-21T23:06:47.272Z,97651.44
2018-06-21T23:09:16.479Z,97654.46
2018-06-21T23:11:45.888Z,97658.67
2018-06-21T23:14:15.663Z,97657.14
2018-06-21T23:16:45.019Z,97658.67
2018-06-21T23:19:26.187Z,97658.34
2018-06-21T23:21:55.874Z,97660.23
2018-06-21T23:24:27.127Z,97659.38
2018-06-21T23:26:56.303Z,97661.58
2018-06-21T23:29:25.948Z,97665.85
2018-06-21T23:31:56.123Z,97662.58
2018-06-21T23:34:25.580Z,97667.94
2018-06-21T23:36:55.170Z,97673.41
2018-06-21T23:39:24.773Z,97667.07
2018-06-21T23:41:54.383Z,97673.17
2018-06-21T23:44:23.575Z,97676.63
2018-06-21T23:46:53.188Z,97676.22
2018-06-21T23:49:23.099Z,97674.10
2018-06-21T23:51:52.587Z,97672.34
2018-06-21T23:54:22.160Z,97676.12
2018-06-21T23:56:51.714Z,97672.50
2018-06-21T23:59:20.967Z,97673.31
